Time;durP1;ratioP1;P1;durP2;ratioP2;P2;SDS_P1;SDS_P2;PMS_P1;PMS_P2;Temp;Humidity;BMP_temperature;BMP_pressure;BME280_temperature;BME280_humidity;BME280_pressure;Samples;Min_cycle;Max_cycle;Signal;HPM_P1;HPM_P2
2023/08/02 00:00:34;;;;;;;;;;;19.50;72.70;;;;;;5097729;28;19920;-65
2023/08/02 00:02:59;;;;;;;;;;;19.50;72.70;;;;;;5097519;28;19919;-65
2023/08/02 00:05:25;;;;;;;;;;;19.50;72.70;;;;;;5097756;28;19965;-65
2023/08/02 00:07:50;;;;;;;;;;;19.50;72.70;;;;;;5097669;28;20010;-65
2023/08/02 00:10:16;;;;;;;;;;;19.50;72.70;;;;;;5115805;28;19919;-65
2023/08/02 00:12:41;;;;;;;;;;;19.50;72.70;;;;;;5115636;28;19926;-67
2023/08/02 00:15:07;;;;;;;;;;;19.50;72.70;;;;;;5097666;28;19927;-66
2023/08/02 00:17:32;;;;;;;;;;;19.50;72.70;;;;;;5080625;28;19926;-65
2023/08/02 00:19:58;;;;;;;;;;;19.50;72.70;;;;;;5097564;28;20332;-65
2023/08/02 00:22:23;;;;;;;;;;;19.50;72.70;;;;;;5114705;28;19945;-65
2023/08/02 00:24:49;;;;;;;;;;;19.50;72.70;;;;;;5097277;28;19920;-65
2023/08/02 00:27:14;;;;;;;;;;;19.40;72.70;;;;;;5115458;28;19920;-65
2023/08/02 00:29:40;;;;;;;;;;;19.40;72.60;;;;;;5096889;28;19923;-66
2023/08/02 00:32:06;;;;;;;;;;;19.50;73.40;;;;;;5097341;28;19955;-65
2023/08/02 00:34:31;;;;;;;;;;;19.40;72.60;;;;;;5115363;28;19935;-65
2023/08/02 00:36:57;;;;;;;;;;;19.40;72.70;;;;;;5097006;28;20002;-65
2023/08/02 00:39:23;;;;;;;;;;;19.40;72.70;;;;;;5097158;28;19982;-65
2023/08/02 00:41:48;;;;;;;;;;;19.40;72.60;;;;;;5097147;28;20014;-70
2023/08/02 00:44:14;;;;;;;;;;;19.40;72.60;;;;;;5115663;28;20041;-65
2023/08/02 00:46:39;;;;;;;;;;;19.40;72.60;;;;;;5097082;28;19978;-65
2023/08/02 00:49:05;;;;;;;;;;;19.40;73.40;;;;;;5096364;28;20325;-65
2023/08/02 00:51:32;;;;;;;;;;;19.40;72.60;;;;;;5096619;28;20072;-66
2023/08/02 00:54:02;;;;;;;;;;;19.40;72.60;;;;;;5114749;28;19920;-65
2023/08/02 00:56:28;;;;;;;;;;;19.40;72.60;;;;;;5096634;28;19924;-65
2023/08/02 00:58:53;;;;;;;;;;;19.40;72.60;;;;;;5096708;28;20061;-65
2023/08/02 01:01:19;;;;;;;;;;;19.40;72.60;;;;;;5096328;28;19928;-65
2023/08/02 01:03:44;;;;;;;;;;;19.40;72.70;;;;;;5096645;28;20335;-65
2023/08/02 01:06:13;;;;;;;;;;;19.40;72.60;;;;;;5130757;27;19919;-65
2023/08/02 01:08:41;;;;;;;;;;;19.40;72.70;;;;;;5096314;28;19924;-65
2023/08/02 01:11:17;;;;;;;;;;;19.40;72.60;;;;;;5096090;28;20366;-65
2023/08/02 01:13:47;;;;;;;;;;;19.40;72.60;;;;;;5096457;28;19923;-65
2023/08/02 01:16:13;;;;;;;;;;;19.40;72.60;;;;;;5096032;28;19919;-65
2023/08/02 01:18:39;;;;;;;;;;;19.40;72.60;;;;;;5114371;28;19919;-65
2023/08/02 01:21:04;;;;;;;;;;;19.40;72.60;;;;;;5114218;28;19954;-65
2023/08/02 01:23:30;;;;;;;;;;;19.40;72.60;;;;;;5114759;28;19927;-65
2023/08/02 01:25:58;;;;;;;;;;;19.40;72.60;;;;;;5114243;28;19945;-65
2023/08/02 01:28:25;;;;;;;;;;;19.40;72.60;;;;;;5130297;27;19928;-66
2023/08/02 01:30:51;;;;;;;;;;;19.40;72.60;;;;;;5114054;28;19969;-65
2023/08/02 01:33:17;;;;;;;;;;;19.40;72.60;;;;;;5114025;28;19919;-65
2023/08/02 01:35:42;;;;;;;;;;;19.40;72.60;;;;;;5095838;28;20022;-65
2023/08/02 01:38:08;;;;;;;;;;;19.40;72.60;;;;;;5095765;28;19965;-65
2023/08/02 01:40:33;;;;;;;;;;;19.40;72.60;;;;;;5113851;28;19927;-65
2023/08/02 01:42:59;;;;;;;;;;;19.40;72.60;;;;;;5095784;28;19970;-68
2023/08/02 01:45:24;;;;;;;;;;;19.40;72.60;;;;;;5095718;28;20036;-65
2023/08/02 01:47:51;;;;;;;;;;;19.40;72.60;;;;;;5095272;28;19924;-65
2023/08/02 01:50:17;;;;;;;;;;;19.40;72.60;;;;;;5095338;28;19930;-65
2023/08/02 01:52:43;;;;;;;;;;;19.40;72.60;;;;;;5095700;28;19923;-70
2023/08/02 01:55:08;;;;;;;;;;;19.40;72.60;;;;;;5095360;28;20320;-65
2023/08/02 01:57:34;;;;;;;;;;;19.40;72.60;;;;;;5129364;27;19920;-65
2023/08/02 01:59:59;;;;;;;;;;;19.40;72.60;;;;;;5095583;28;19927;-65
2023/08/02 02:02:25;;;;;;;;;;;19.40;72.60;;;;;;5095159;28;19926;-65
2023/08/02 02:04:51;;;;;;;;;;;19.40;72.60;;;;;;5113706;28;19919;-65
2023/08/02 02:07:16;;;;;;;;;;;19.40;72.60;;;;;;5095507;28;20004;-65
2023/08/02 02:09:42;;;;;;;;;;;19.30;72.50;;;;;;5113383;28;19919;-67
2023/08/02 02:12:07;;;;;;;;;;;19.30;72.50;;;;;;5113693;28;20531;-65
2023/08/02 02:14:36;;;;;;;;;;;19.30;72.50;;;;;;5113311;28;19923;-65
2023/08/02 02:17:01;;;;;;;;;;;19.40;72.60;;;;;;5113208;28;19920;-65
2023/08/02 02:19:27;;;;;;;;;;;19.30;72.50;;;;;;5094817;28;19920;-65
2023/08/02 02:21:53;;;;;;;;;;;19.30;72.50;;;;;;5094942;28;19920;-66
2023/08/02 02:24:18;;;;;;;;;;;19.30;72.50;;;;;;5113237;28;19926;-66
2023/08/02 02:26:44;;;;;;;;;;;19.40;72.50;;;;;;5113312;28;19919;-65
2023/08/02 02:29:09;;;;;;;;;;;19.30;72.50;;;;;;5113073;28;20457;-65
2023/08/02 02:31:34;;;;;;;;;;;19.30;72.50;;;;;;5095018;28;19924;-65
2023/08/02 02:34:00;;;;;;;;;;;19.30;72.50;;;;;;5113081;28;20282;-65
2023/08/02 02:36:25;;;;;;;;;;;19.30;72.50;;;;;;5095134;28;19966;-65
2023/08/02 02:38:51;;;;;;;;;;;19.30;72.50;;;;;;5094684;28;20370;-65
2023/08/02 02:41:16;;;;;;;;;;;19.30;72.50;;;;;;5112907;28;19926;-65
2023/08/02 02:43:42;;;;;;;;;;;19.30;72.50;;;;;;5094978;28;19919;-70
2023/08/02 02:46:07;;;;;;;;;;;19.30;72.50;;;;;;5094935;28;20259;-64
2023/08/02 02:48:33;;;;;;;;;;;19.30;72.50;;;;;;5094403;28;19975;-65
2023/08/02 02:50:58;;;;;;;;;;;19.30;72.50;;;;;;5113066;28;20436;-65
2023/08/02 02:53:25;;;;;;;;;;;19.30;72.70;;;;;;5094499;28;20423;-65
2023/08/02 02:55:51;;;;;;;;;;;19.30;72.50;;;;;;5112811;28;20446;-65
2023/08/02 02:58:17;;;;;;;;;;;19.30;72.50;;;;;;5094779;28;19963;-65
2023/08/02 03:00:42;;;;;;;;;;;19.30;72.50;;;;;;5094926;28;20101;-65
2023/08/02 03:03:08;;;;;;;;;;;19.30;72.50;;;;;;5094326;28;19920;-65
2023/08/02 03:05:34;;;;;;;;;;;19.30;72.50;;;;;;5112879;28;19967;-65
2023/08/02 03:07:59;;;;;;;;;;;19.30;72.50;;;;;;5128719;28;19992;-66
2023/08/02 03:10:25;;;;;;;;;;;19.30;72.50;;;;;;5094489;28;20374;-65
2023/08/02 03:12:50;;;;;;;;;;;19.30;72.40;;;;;;5112771;28;19920;-65
2023/08/02 03:15:15;;;;;;;;;;;19.30;72.40;;;;;;5094353;28;20412;-65
2023/08/02 03:17:41;;;;;;;;;;;19.30;72.40;;;;;;5094518;28;19920;-65
2023/08/02 03:20:07;;;;;;;;;;;19.30;73.20;;;;;;5094556;28;19920;-65
2023/08/02 03:22:32;;;;;;;;;;;19.30;72.40;;;;;;5112728;28;19923;-65
2023/08/02 03:24:58;;;;;;;;;;;19.20;72.40;;;;;;5094296;28;20423;-65
2023/08/02 03:27:23;;;;;;;;;;;19.30;73.10;;;;;;5094219;28;19920;-65
2023/08/02 03:29:49;;;;;;;;;;;19.20;72.30;;;;;;5094088;28;20014;-65
2023/08/02 03:32:14;;;;;;;;;;;19.30;72.40;;;;;;5098300;28;20016;-66
2023/08/02 03:34:40;;;;;;;;;;;19.20;72.30;;;;;;5132465;27;19927;-65
2023/08/02 03:37:06;;;;;;;;;;;19.20;72.30;;;;;;5098337;28;19920;-65
2023/08/02 03:39:31;;;;;;;;;;;19.20;72.30;;;;;;5098430;28;19927;-65
2023/08/02 03:41:57;;;;;;;;;;;19.30;72.40;;;;;;5116337;28;19978;-65
2023/08/02 03:44:22;;;;;;;;;;;19.20;72.30;;;;;;5132570;27;20158;-65
2023/08/02 03:46:48;;;;;;;;;;;19.20;72.30;;;;;;5116274;28;19964;-65
2023/08/02 03:49:13;;;;;;;;;;;19.20;72.30;;;;;;5097575;28;19970;-65
2023/08/02 03:51:39;;;;;;;;;;;19.20;72.30;;;;;;5097876;28;19920;-65
2023/08/02 03:54:04;;;;;;;;;;;19.20;72.20;;;;;;5098107;28;19920;-65
2023/08/02 03:56:30;;;;;;;;;;;19.20;72.30;;;;;;5132181;27;19920;-65
2023/08/02 03:58:55;;;;;;;;;;;19.20;72.30;;;;;;5116024;28;20438;-65
2023/08/02 04:01:21;;;;;;;;;;;19.20;72.30;;;;;;5115886;28;19919;-65
2023/08/02 04:03:46;;;;;;;;;;;19.20;72.30;;;;;;5097891;28;20405;-65
2023/08/02 04:06:12;;;;;;;;;;;19.20;72.30;;;;;;5115656;28;20361;-65
2023/08/02 04:08:38;;;;;;;;;;;19.20;72.30;;;;;;5097778;28;20057;-65
2023/08/02 04:11:05;;;;;;;;;;;19.20;72.30;;;;;;5096909;28;20380;-65
2023/08/02 04:13:30;;;;;;;;;;;19.20;72.20;;;;;;5097619;28;19927;-65
2023/08/02 04:15:56;;;;;;;;;;;19.20;72.20;;;;;;5097609;28;19927;-65
2023/08/02 04:18:21;;;;;;;;;;;19.20;72.20;;;;;;5115598;28;19950;-66
2023/08/02 04:20:47;;;;;;;;;;;19.20;72.20;;;;;;5115377;28;19920;-65
2023/08/02 04:23:12;;;;;;;;;;;19.20;72.20;;;;;;5097217;28;19924;-65
2023/08/02 04:25:38;;;;;;;;;;;19.20;72.20;;;;;;5115380;28;19920;-65
2023/08/02 04:28:03;;;;;;;;;;;19.20;72.20;;;;;;5097282;28;19927;-65
2023/08/02 04:30:28;;;;;;;;;;;19.20;72.20;;;;;;5115249;28;20290;-65
2023/08/02 04:32:55;;;;;;;;;;;19.20;72.20;;;;;;5115328;28;19927;-65
2023/08/02 04:35:21;;;;;;;;;;;19.20;72.20;;;;;;5115209;28;19919;-65
2023/08/02 04:37:46;;;;;;;;;;;19.20;72.20;;;;;;5097279;28;19926;-65
2023/08/02 04:40:11;;;;;;;;;;;19.20;72.20;;;;;;5115096;28;20374;-65
2023/08/02 04:42:37;;;;;;;;;;;19.20;72.20;;;;;;5096697;28;19919;-65
2023/08/02 04:45:03;;;;;;;;;;;19.20;72.20;;;;;;5115070;28;20343;-65
2023/08/02 04:47:28;;;;;;;;;;;19.10;72.10;;;;;;5096479;28;19971;-65
2023/08/02 04:49:56;;;;;;;;;;;19.20;72.20;;;;;;5114768;28;19981;-65
2023/08/02 04:52:22;;;;;;;;;;;19.10;72.10;;;;;;5096785;28;19920;-65
2023/08/02 04:54:47;;;;;;;;;;;19.10;72.20;;;;;;5114934;28;20302;-65
2023/08/02 04:57:13;;;;;;;;;;;19.20;72.20;;;;;;5114911;28;19969;-67
2023/08/02 04:59:38;;;;;;;;;;;19.10;72.10;;;;;;5096450;28;19919;-67
2023/08/02 05:02:04;;;;;;;;;;;19.20;72.20;;;;;;5114584;28;20353;-68
2023/08/02 05:04:29;;;;;;;;;;;19.10;72.10;;;;;;5130456;27;19919;-67
2023/08/02 05:06:54;;;;;;;;;;;19.20;72.20;;;;;;5096450;28;20003;-67
2023/08/02 05:09:20;;;;;;;;;;;19.20;72.20;;;;;;5130367;27;20267;-67
2023/08/02 05:11:46;;;;;;;;;;;19.10;72.10;;;;;;5130587;27;19966;-67
2023/08/02 05:14:12;;;;;;;;;;;19.10;72.10;;;;;;5096234;28;20370;-67
2023/08/02 05:16:37;;;;;;;;;;;19.10;72.10;;;;;;5096401;28;20331;-67
2023/08/02 05:19:03;;;;;;;;;;;19.20;72.20;;;;;;5130041;27;20014;-67
2023/08/02 05:21:29;;;;;;;;;;;19.10;72.10;;;;;;5096338;28;19920;-67
2023/08/02 05:23:55;;;;;;;;;;;19.10;72.10;;;;;;5095927;28;20341;-67
2023/08/02 05:26:20;;;;;;;;;;;19.20;72.10;;;;;;5096237;28;19963;-68
2023/08/02 05:28:46;;;;;;;;;;;19.10;72.10;;;;;;5114077;28;20250;-67
2023/08/02 05:31:12;;;;;;;;;;;19.10;72.10;;;;;;5096126;28;19920;-67
2023/08/02 05:33:38;;;;;;;;;;;19.10;72.10;;;;;;5129811;27;19964;-67
2023/08/02 05:36:03;;;;;;;;;;;19.20;72.10;;;;;;5130210;27;19928;-67
2023/08/02 05:38:30;;;;;;;;;;;19.10;72.10;;;;;;5113813;28;19920;-67
2023/08/02 05:41:00;;;;;;;;;;;19.10;72.10;;;;;;5095645;28;19935;-67
2023/08/02 05:43:25;;;;;;;;;;;19.10;72.10;;;;;;5129956;27;20286;-67
2023/08/02 05:45:51;;;;;;;;;;;19.10;72.10;;;;;;5095566;28;19920;-67
2023/08/02 05:48:17;;;;;;;;;;;19.10;72.10;;;;;;5095244;28;19937;-67
2023/08/02 05:50:42;;;;;;;;;;;19.10;72.10;;;;;;5095792;28;20408;-67
2023/08/02 05:53:08;;;;;;;;;;;19.10;72.10;;;;;;5094913;28;19919;-67
2023/08/02 05:55:33;;;;;;;;;;;19.10;72.10;;;;;;5095531;28;19928;-67
2023/08/02 05:57:58;;;;;;;;;;;19.10;72.10;;;;;;5129865;27;19926;-67
2023/08/02 06:00:24;;;;;;;;;;;19.10;72.10;;;;;;5095755;28;19927;-67
2023/08/02 06:02:50;;;;;;;;;;;19.10;72.10;;;;;;5095277;28;19920;-67
2023/08/02 06:05:15;;;;;;;;;;;19.10;72.10;;;;;;5113477;28;20286;-67
2023/08/02 06:07:41;;;;;;;;;;;19.10;72.10;;;;;;5095679;28;19966;-67
2023/08/02 06:10:06;;;;;;;;;;;19.10;72.10;;;;;;5095233;28;19924;-66
2023/08/02 06:12:32;;;;;;;;;;;19.10;72.10;;;;;;5095392;28;19927;-67
2023/08/02 06:14:57;;;;;;;;;;;19.10;72.10;;;;;;5113354;28;19919;-67
2023/08/02 06:17:23;;;;;;;;;;;19.10;72.10;;;;;;5095074;28;19927;-70
2023/08/02 06:19:48;;;;;;;;;;;19.20;72.20;;;;;;5113204;28;19919;-66
2023/08/02 06:22:15;;;;;;;;;;;19.10;72.10;;;;;;5113248;28;20014;-67
2023/08/02 06:24:42;;;;;;;;;;;19.10;72.10;;;;;;5113089;28;19931;-67
2023/08/02 06:27:07;;;;;;;;;;;19.20;72.20;;;;;;5113291;28;19919;-67
2023/08/02 06:29:33;;;;;;;;;;;19.10;72.10;;;;;;5094583;28;20022;-67
2023/08/02 06:31:58;;;;;;;;;;;19.10;72.10;;;;;;5094854;28;20020;-67
2023/08/02 06:34:24;;;;;;;;;;;19.10;72.10;;;;;;5113207;28;19920;-67
2023/08/02 06:36:49;;;;;;;;;;;19.10;72.20;;;;;;5112976;28;19981;-67
2023/08/02 06:39:15;;;;;;;;;;;19.10;72.10;;;;;;5094942;28;19969;-67
2023/08/02 06:41:40;;;;;;;;;;;19.10;72.10;;;;;;5094607;28;19926;-67
2023/08/02 06:44:06;;;;;;;;;;;19.10;72.10;;;;;;5113077;28;19919;-67
2023/08/02 06:46:32;;;;;;;;;;;19.10;72.10;;;;;;5094857;28;19970;-67
2023/08/02 06:48:58;;;;;;;;;;;19.10;72.10;;;;;;5090997;28;19933;-66
2023/08/02 06:51:23;;;;;;;;;;;19.10;72.10;;;;;;5112743;28;19928;-68
2023/08/02 06:53:49;;;;;;;;;;;19.10;72.10;;;;;;5112828;28;20359;-67
2023/08/02 06:56:15;;;;;;;;;;;19.10;72.10;;;;;;5094343;28;19920;-72
2023/08/02 06:58:41;;;;;;;;;;;19.10;72.00;;;;;;5094797;28;19923;-73
2023/08/02 07:01:14;;;;;;;;;;;19.10;72.10;;;;;;5077561;28;19980;-67
2023/08/02 07:03:39;;;;;;;;;;;19.10;72.10;;;;;;5094340;28;19968;-67
2023/08/02 07:06:09;;;;;;;;;;;19.10;72.10;;;;;;5098017;28;19927;-67
2023/08/02 07:08:34;;;;;;;;;;;19.10;72.10;;;;;;5098606;28;19930;-67
2023/08/02 07:11:00;;;;;;;;;;;19.10;72.10;;;;;;5098503;28;19919;-74
2023/08/02 07:13:25;;;;;;;;;;;19.10;72.10;;;;;;5116771;28;19920;-68
2023/08/02 07:15:51;;;;;;;;;;;19.10;72.10;;;;;;5116925;28;19951;-67
2023/08/02 07:18:16;;;;;;;;;;;19.10;72.10;;;;;;5098678;28;20263;-67
2023/08/02 07:20:42;;;;;;;;;;;19.10;72.10;;;;;;5098483;28;19927;-67
2023/08/02 07:23:07;;;;;;;;;;;19.10;72.10;;;;;;5116550;28;19997;-72
2023/08/02 07:25:33;;;;;;;;;;;19.10;72.10;;;;;;5116507;28;20022;-67
2023/08/02 07:27:58;;;;;;;;;;;19.10;72.10;;;;;;5116418;28;19972;-67
2023/08/02 07:30:24;;;;;;;;;;;19.10;72.10;;;;;;5098210;28;19967;-68
2023/08/02 07:32:49;;;;;;;;;;;19.10;72.10;;;;;;5098121;28;19919;-67
2023/08/02 07:35:15;;;;;;;;;;;19.10;72.10;;;;;;5098397;28;19927;-67
2023/08/02 07:37:40;;;;;;;;;;;19.10;72.10;;;;;;5097990;28;19920;-67
2023/08/02 07:40:06;;;;;;;;;;;19.10;72.10;;;;;;5098346;28;20060;-66
2023/08/02 07:42:31;;;;;;;;;;;19.10;72.10;;;;;;5097745;28;19973;-67
2023/08/02 07:45:06;;;;;;;;;;;19.10;72.10;;;;;;5116233;28;19927;-66
2023/08/02 07:47:32;;;;;;;;;;;19.10;72.10;;;;;;5097960;28;20000;-67
2023/08/02 07:49:57;;;;;;;;;;;19.10;72.10;;;;;;5097787;28;20390;-67
2023/08/02 07:52:22;;;;;;;;;;;19.10;72.10;;;;;;5097715;28;19931;-66
2023/08/02 07:54:48;;;;;;;;;;;19.10;72.10;;;;;;5116058;28;19966;-66
2023/08/02 07:57:13;;;;;;;;;;;19.10;72.20;;;;;;5097979;28;19982;-66
2023/08/02 07:59:39;;;;;;;;;;;19.10;72.20;;;;;;5116069;28;20378;-66
2023/08/02 08:02:04;;;;;;;;;;;19.10;72.20;;;;;;5097476;28;19926;-67
2023/08/02 08:04:30;;;;;;;;;;;19.00;72.10;;;;;;5097769;28;19926;-66
2023/08/02 08:06:55;;;;;;;;;;;19.10;72.20;;;;;;5097398;28;19942;-66
2023/08/02 08:09:24;;;;;;;;;;;19.10;72.20;;;;;;5114909;28;19990;-66
2023/08/02 08:11:49;;;;;;;;;;;19.10;72.30;;;;;;5097500;28;20197;-74
2023/08/02 08:14:15;;;;;;;;;;;19.10;72.30;;;;;;5115528;28;20196;-64
2023/08/02 08:16:40;;;;;;;;;;;19.10;72.30;;;;;;5096500;28;19920;-64
2023/08/02 08:19:06;;;;;;;;;;;19.10;72.30;;;;;;5097073;28;19919;-64
2023/08/02 08:21:31;;;;;;;;;;;19.10;72.40;;;;;;5097222;28;20278;-64
2023/08/02 08:23:57;;;;;;;;;;;19.10;72.40;;;;;;5115314;28;19919;-64
2023/08/02 08:26:23;;;;;;;;;;;19.10;72.40;;;;;;5115262;28;19967;-64
2023/08/02 08:28:49;;;;;;;;;;;19.10;72.40;;;;;;5096799;28;19935;-66
2023/08/02 08:31:14;;;;;;;;;;;19.10;72.50;;;;;;5096773;28;20010;-64
2023/08/02 08:33:40;;;;;;;;;;;19.00;72.40;;;;;;5097073;28;20022;-70
2023/08/02 08:36:12;;;;;;;;;;;19.10;72.60;;;;;;5096882;28;20402;-67
2023/08/02 08:38:37;;;;;;;;;;;19.10;72.60;;;;;;5097086;28;19954;-67
2023/08/02 08:41:03;;;;;;;;;;;19.00;72.60;;;;;;5114931;28;20382;-67
2023/08/02 08:43:28;;;;;;;;;;;19.10;72.60;;;;;;5097046;28;19920;-67
2023/08/02 08:45:54;;;;;;;;;;;19.10;72.70;;;;;;5115137;28;19927;-67
2023/08/02 08:48:21;;;;;;;;;;;19.10;72.70;;;;;;5114798;28;19928;-67
2023/08/02 08:50:49;;;;;;;;;;;19.00;72.70;;;;;;5114710;28;20018;-67
2023/08/02 08:53:17;;;;;;;;;;;19.00;72.70;;;;;;5096747;28;19983;-67
2023/08/02 08:55:44;;;;;;;;;;;19.00;72.70;;;;;;5114671;28;19920;-66
2023/08/02 08:58:10;;;;;;;;;;;19.10;72.80;;;;;;5114653;28;19924;-67
2023/08/02 09:00:36;;;;;;;;;;;19.10;72.80;;;;;;5096600;28;19919;-67
2023/08/02 09:03:02;;;;;;;;;;;19.10;72.80;;;;;;5096247;28;19966;-67
2023/08/02 09:05:30;;;;;;;;;;;19.10;72.80;;;;;;5114452;28;19941;-67
2023/08/02 09:07:58;;;;;;;;;;;19.00;72.80;;;;;;5096351;28;19919;-66
2023/08/02 09:10:23;;;;;;;;;;;19.00;72.80;;;;;;5114428;28;19969;-66
2023/08/02 09:12:49;;;;;;;;;;;19.00;72.80;;;;;;5114275;28;19924;-66
2023/08/02 09:15:15;;;;;;;;;;;19.10;72.90;;;;;;5130258;27;19920;-66
2023/08/02 09:17:46;;;;;;;;;;;19.00;73.00;;;;;;5095920;28;19920;-66
2023/08/02 09:20:11;;;;;;;;;;;19.10;73.10;;;;;;5092705;28;19919;-66
2023/08/02 09:22:37;;;;;;;;;;;19.10;73.10;;;;;;5103263;28;20279;-66
2023/08/02 09:25:06;;;;;;;;;;;19.10;73.20;;;;;;5094297;28;20339;-66
2023/08/02 09:27:32;;;;;;;;;;;19.00;73.10;;;;;;5095552;28;20002;-66
2023/08/02 09:29:58;;;;;;;;;;;19.00;73.20;;;;;;5084229;28;19924;-65
2023/08/02 09:32:23;;;;;;;;;;;19.10;73.30;;;;;;5089950;28;19955;-66
2023/08/02 09:34:51;;;;;;;;;;;19.10;73.30;;;;;;5082877;28;19946;-66
2023/08/02 09:37:27;;;;;;;;;;;19.10;73.30;;;;;;5075544;28;19920;-66
2023/08/02 09:39:53;;;;;;;;;;;19.10;73.40;;;;;;5093479;28;20345;-66
2023/08/02 09:42:23;;;;;;;;;;;19.00;73.40;;;;;;5093443;28;20010;-66
2023/08/02 09:44:57;;;;;;;;;;;19.00;73.40;;;;;;5109421;28;19920;-66
2023/08/02 09:47:23;;;;;;;;;;;19.10;73.50;;;;;;5074897;28;19927;-66
2023/08/02 09:50:04;;;;;;;;;;;19.00;73.50;;;;;;5108931;28;19959;-71
2023/08/02 09:52:30;;;;;;;;;;;19.10;73.60;;;;;;5074907;28;19920;-66
2023/08/02 09:54:56;;;;;;;;;;;19.00;73.50;;;;;;5109034;28;19924;-66
2023/08/02 09:57:23;;;;;;;;;;;19.10;73.60;;;;;;5074729;28;20394;-66
2023/08/02 09:59:51;;;;;;;;;;;19.00;73.60;;;;;;5075075;28;20363;-66
2023/08/02 10:02:17;;;;;;;;;;;19.10;73.70;;;;;;5108681;28;19920;-66
2023/08/02 10:04:43;;;;;;;;;;;19.10;73.70;;;;;;5092952;28;19927;-66
2023/08/02 10:07:12;;;;;;;;;;;19.00;73.70;;;;;;5092932;28;20401;-66
2023/08/02 10:09:37;;;;;;;;;;;19.00;73.70;;;;;;5093114;28;19966;-66
2023/08/02 10:12:07;;;;;;;;;;;19.00;74.50;;;;;;5108769;28;19924;-66
2023/08/02 10:14:33;;;;;;;;;;;19.10;73.90;;;;;;5092921;28;19924;-66
2023/08/02 10:17:01;;;;;;;;;;;19.10;73.90;;;;;;5074610;28;19920;-66
2023/08/02 10:19:27;;;;;;;;;;;19.00;73.90;;;;;;5108791;28;19920;-66
2023/08/02 10:21:53;;;;;;;;;;;19.10;74.00;;;;;;5108800;28;20361;-66
2023/08/02 10:24:18;;;;;;;;;;;19.00;73.90;;;;;;5074800;28;19963;-66
2023/08/02 10:26:44;;;;;;;;;;;19.10;74.00;;;;;;5092838;28;20417;-66
2023/08/02 10:29:10;;;;;;;;;;;19.10;73.90;;;;;;5091451;28;19950;-66
2023/08/02 10:31:35;;;;;;;;;;;19.10;73.90;;;;;;5108564;28;19948;-67
2023/08/02 10:34:02;;;;;;;;;;;19.10;73.90;;;;;;5092508;28;19973;-66
2023/08/02 10:36:47;;;;;;;;;;;19.00;73.80;;;;;;5074268;28;20006;-67
2023/08/02 10:39:13;;;;;;;;;;;19.00;73.80;;;;;;5073781;28;19920;-66
2023/08/02 10:41:55;;;;;;;;;;;19.00;73.80;;;;;;5092783;28;20018;-67
2023/08/02 10:44:20;;;;;;;;;;;19.00;73.80;;;;;;5108382;28;19920;-67
2023/08/02 10:46:46;;;;;;;;;;;19.00;73.80;;;;;;5092373;28;20011;-66
2023/08/02 10:51:52;;;;;;;;;;;19.00;73.80;;;;;;5110336;27;19919;-65
2023/08/02 10:54:21;;;;;;;;;;;19.10;74.00;;;;;;5108405;28;19919;-65
2023/08/02 11:02:15;;;;;;;;;;;19.10;74.00;;;;;;5109993;27;19938;-65
2023/08/02 11:04:44;;;;;;;;;;;19.10;74.10;;;;;;5109932;28;20434;-65
2023/08/02 11:07:11;;;;;;;;;;;19.10;74.10;;;;;;5108686;28;19920;-65
2023/08/02 11:09:36;;;;;;;;;;;19.10;74.00;;;;;;5108575;28;19927;-65
2023/08/02 11:14:51;;;;;;;;;;;19.10;74.10;;;;;;5089520;28;19919;-65
2023/08/02 11:17:17;;;;;;;;;;;19.00;74.00;;;;;;5088077;28;20420;-65
2023/08/02 11:19:47;;;;;;;;;;;19.10;74.00;;;;;;5088471;28;19930;-65
2023/08/02 11:22:12;;;;;;;;;;;19.10;74.80;;;;;;5088165;28;19960;-66
2023/08/02 11:24:46;;;;;;;;;;;19.10;74.00;;;;;;5089319;28;19976;-65
2023/08/02 11:30:00;;;;;;;;;;;19.10;74.00;;;;;;5109911;27;19918;-65
2023/08/02 11:32:26;;;;;;;;;;;19.10;73.90;;;;;;5109221;28;20255;-66
2023/08/02 11:34:51;;;;;;;;;;;19.10;74.00;;;;;;5108484;28;20370;-65
2023/08/02 11:37:17;;;;;;;;;;;19.10;74.00;;;;;;5108484;28;19927;-65
2023/08/02 11:39:51;;;;;;;;;;;19.10;74.00;;;;;;5108708;28;19993;-65
2023/08/02 11:42:16;;;;;;;;;;;19.10;74.00;;;;;;5108498;28;19920;-65
2023/08/02 11:44:43;;;;;;;;;;;19.10;73.70;;;;;;5109756;28;19931;-65
2023/08/02 11:47:09;;;;;;;;;;;19.10;73.70;;;;;;5108132;28;19932;-65
2023/08/02 11:49:46;;;;;;;;;;;19.10;73.70;;;;;;5109629;28;19993;-65
2023/08/02 11:52:12;;;;;;;;;;;19.10;73.70;;;;;;5108296;28;20334;-65
2023/08/02 11:54:37;;;;;;;;;;;19.10;73.70;;;;;;5108367;28;19931;-65
2023/08/02 11:57:03;;;;;;;;;;;19.10;73.70;;;;;;5108389;28;19920;-65
2023/08/02 11:59:28;;;;;;;;;;;19.20;73.80;;;;;;5109665;28;19920;-66
2023/08/02 12:01:54;;;;;;;;;;;19.20;73.80;;;;;;5108417;28;19926;-65
2023/08/02 12:04:19;;;;;;;;;;;19.10;73.70;;;;;;5109562;28;19927;-65
2023/08/02 12:09:38;;;;;;;;;;;19.20;73.80;;;;;;5109822;27;19912;-66
2023/08/02 12:12:04;;;;;;;;;;;19.20;73.70;;;;;;5108501;28;19970;-66
2023/08/02 12:14:30;;;;;;;;;;;19.20;73.80;;;;;;5109018;28;20363;-65
2023/08/02 12:16:55;;;;;;;;;;;19.20;73.80;;;;;;5108549;28;19920;-66
2023/08/02 12:19:35;;;;;;;;;;;19.20;73.80;;;;;;5108695;28;19938;-66
2023/08/02 12:22:01;;;;;;;;;;;19.20;73.80;;;;;;5108896;28;19920;-65
2023/08/02 12:24:26;;;;;;;;;;;19.20;73.80;;;;;;5108797;28;19926;-66
2023/08/02 12:26:52;;;;;;;;;;;19.20;73.90;;;;;;5108845;28;20371;-65
2023/08/02 12:29:22;;;;;;;;;;;19.20;73.80;;;;;;5108535;28;20378;-65
2023/08/02 12:31:48;;;;;;;;;;;19.20;73.90;;;;;;5108428;28;19924;-66
2023/08/02 12:34:13;;;;;;;;;;;19.20;73.90;;;;;;5108702;28;19920;-65
2023/08/02 12:36:39;;;;;;;;;;;19.20;73.90;;;;;;5108297;28;19920;-65
2023/08/02 12:39:05;;;;;;;;;;;19.20;74.10;;;;;;5108728;28;19920;-65
2023/08/02 12:41:30;;;;;;;;;;;19.20;73.90;;;;;;5108233;28;19920;-66
2023/08/02 12:43:56;;;;;;;;;;;19.20;74.00;;;;;;5108585;28;19927;-65
2023/08/02 12:46:22;;;;;;;;;;;19.20;74.00;;;;;;5108283;28;19921;-65
2023/08/02 12:48:48;;;;;;;;;;;19.20;74.20;;;;;;5108187;28;20215;-68
2023/08/02 12:51:14;;;;;;;;;;;19.20;74.00;;;;;;5109395;28;20278;-65
2023/08/02 12:53:39;;;;;;;;;;;19.20;74.10;;;;;;5107990;28;20023;-65
2023/08/02 12:56:05;;;;;;;;;;;19.20;74.10;;;;;;5108349;28;19989;-66
2023/08/02 12:58:30;;;;;;;;;;;19.20;74.20;;;;;;5108173;28;19973;-65
2023/08/02 13:00:56;;;;;;;;;;;19.20;74.20;;;;;;5109358;28;20381;-65
2023/08/02 13:03:22;;;;;;;;;;;19.30;74.20;;;;;;5109100;28;19920;-65
2023/08/02 13:05:47;;;;;;;;;;;19.20;74.40;;;;;;5109069;28;20026;-65
2023/08/02 13:08:13;;;;;;;;;;;19.20;74.30;;;;;;5108841;28;19931;-65
2023/08/02 13:10:39;;;;;;;;;;;19.20;74.40;;;;;;5107783;28;20341;-65
2023/08/02 13:13:04;;;;;;;;;;;19.20;74.20;;;;;;5107675;28;19962;-65
2023/08/02 13:15:30;;;;;;;;;;;19.20;74.20;;;;;;5107982;28;19924;-65
2023/08/02 13:17:55;;;;;;;;;;;19.20;74.20;;;;;;5107772;28;20023;-65
2023/08/02 13:20:21;;;;;;;;;;;19.20;74.30;;;;;;5096217;28;19946;-65
2023/08/02 13:22:46;;;;;;;;;;;19.20;74.50;;;;;;5094293;28;19971;-65
2023/08/02 13:25:12;;;;;;;;;;;19.20;74.30;;;;;;5094275;28;20328;-64
2023/08/02 13:27:37;;;;;;;;;;;19.20;74.50;;;;;;5093900;28;19927;-63
2023/08/02 13:30:03;;;;;;;;;;;19.20;74.60;;;;;;5093826;28;19926;-63
2023/08/02 13:32:33;;;;;;;;;;;19.20;74.50;;;;;;5094075;28;20022;-64
2023/08/02 13:34:59;;;;;;;;;;;19.20;74.30;;;;;;5093603;28;19965;-64
2023/08/02 13:37:25;;;;;;;;;;;19.20;74.30;;;;;;5094944;28;20013;-63
2023/08/02 13:39:50;;;;;;;;;;;19.20;74.30;;;;;;5093878;28;19927;-64
2023/08/02 13:42:16;;;;;;;;;;;19.20;74.50;;;;;;5095042;28;19920;-64
2023/08/02 13:44:41;;;;;;;;;;;19.20;74.50;;;;;;5094061;28;19977;-64
2023/08/02 13:47:07;;;;;;;;;;;19.20;74.50;;;;;;5093535;28;19931;-63
2023/08/02 13:49:32;;;;;;;;;;;19.30;74.60;;;;;;5093881;28;19928;-64
2023/08/02 13:51:58;;;;;;;;;;;19.30;74.70;;;;;;5093441;28;19920;-63
2023/08/02 13:54:23;;;;;;;;;;;19.30;74.90;;;;;;5093391;28;19926;-63
2023/08/02 13:56:49;;;;;;;;;;;19.30;74.60;;;;;;5093577;28;20333;-64
2023/08/02 13:59:14;;;;;;;;;;;19.30;74.60;;;;;;5093637;28;19920;-64
2023/08/02 14:01:40;;;;;;;;;;;19.30;74.60;;;;;;5093287;28;19924;-65
2023/08/02 14:04:05;;;;;;;;;;;19.30;74.70;;;;;;5093329;28;19920;-64
2023/08/02 14:06:30;;;;;;;;;;;19.30;74.90;;;;;;5093078;28;19942;-65
2023/08/02 14:08:56;;;;;;;;;;;19.30;75.10;;;;;;5092881;28;20432;-65
2023/08/02 14:11:21;;;;;;;;;;;19.30;75.00;;;;;;5093264;28;19920;-65
2023/08/02 14:13:47;;;;;;;;;;;19.30;75.00;;;;;;5093003;28;19923;-65
2023/08/02 14:16:12;;;;;;;;;;;19.30;74.90;;;;;;5094301;28;19920;-65
2023/08/02 14:18:38;;;;;;;;;;;19.30;75.10;;;;;;5093162;28;19959;-65
2023/08/02 14:21:03;;;;;;;;;;;19.30;75.10;;;;;;5093167;28;19928;-66
2023/08/02 14:23:29;;;;;;;;;;;19.30;75.10;;;;;;5093054;28;19955;-65
2023/08/02 14:25:54;;;;;;;;;;;19.30;75.00;;;;;;5094049;28;19924;-65